Time;durP1;ratioP1;P1;durP2;ratioP2;P2;SDS_P1;SDS_P2;PMS_P1;PMS_P2;Temp;Humidity;BMP_temperature;BMP_pressure;BME280_temperature;BME280_humidity;BME280_pressure;Samples;Min_cycle;Max_cycle;Signal;HPM_P1;HPM_P2
2021/12/04 00:01:00;;;;;;;19.60;8.48;;;;;;;9.94;82.67;99778.39;1874131;76;22146;-62
2021/12/04 00:03:52;;;;;;;24.25;9.25;;;;;;;9.95;82.70;99761.47;1892770;76;22136;-61
2021/12/04 00:06:27;;;;;;;21.85;9.78;;;;;;;9.96;82.70;99760.47;1874031;76;22116;-62
2021/12/04 00:09:21;;;;;;;22.87;12.20;;;;;;;9.93;82.76;99759.48;1873967;76;22166;-62
2021/12/04 00:11:59;;;;;;;22.87;8.70;;;;;;;9.93;82.84;99754.17;1874036;76;22162;-62
2021/12/04 00:14:30;;;;;;;22.42;7.80;;;;;;;9.95;82.94;99755.34;1892818;76;22590;-61
2021/12/04 00:17:03;;;;;;;21.20;8.20;;;;;;;9.95;83.10;99754.01;1892812;76;22158;-62
2021/12/04 00:19:54;;;;;;;19.62;8.30;;;;;;;9.93;83.23;99754.67;1874112;76;22121;-62
2021/12/04 00:22:26;;;;;;;22.35;8.00;;;;;;;9.93;83.35;99746.72;1874028;76;22171;-61
2021/12/04 00:24:57;;;;;;;17.48;7.60;;;;;;;9.91;83.43;99749.50;1874017;76;22554;-62
2021/12/04 00:27:29;;;;;;;17.35;7.22;;;;;;;9.91;83.50;99750.00;1892823;76;22128;-64
2021/12/04 00:30:01;;;;;;;23.92;7.40;;;;;;;9.89;83.65;99750.67;1874014;76;22138;-62
2021/12/04 00:33:12;;;;;;;19.30;8.48;;;;;;;9.90;83.80;99747.02;1892774;76;22123;-62
2021/12/04 00:35:45;;;;;;;22.67;10.43;;;;;;;9.91;83.87;99744.70;1874024;76;22566;-62
2021/12/04 00:49:54;;;;;;;27.80;12.05;;;;;;;9.99;84.22;99754.03;1873918;76;22128;-62
2021/12/04 00:52:45;;;;;;;27.73;15.15;;;;;;;10.03;84.22;99745.27;1873994;76;22166;-62
2021/12/04 00:55:17;;;;;;;38.45;28.55;;;;;;;10.05;84.15;99746.76;1892838;76;22155;-62
2021/12/04 00:57:48;;;;;;;23.65;10.55;;;;;;;10.04;84.06;99750.41;1874043;76;22137;-62
2021/12/04 01:00:20;;;;;;;22.20;7.80;;;;;;;10.04;84.02;99754.88;1874027;76;22137;-62
2021/12/04 01:03:11;;;;;;;24.43;8.60;;;;;;;10.04;84.01;99752.23;1874002;76;22149;-62
2021/12/04 01:05:43;;;;;;;20.10;7.30;;;;;;;10.05;84.06;99753.89;1892839;76;22123;-62
2021/12/04 01:08:21;;;;;;;21.55;6.95;;;;;;;10.05;84.06;99756.05;1892807;76;22578;-62
2021/12/04 01:10:52;;;;;;;19.00;7.12;;;;;;;10.04;84.00;99757.05;1874025;76;22162;-61
2021/12/04 01:13:44;;;;;;;23.42;5.87;;;;;;;9.99;84.13;99759.34;1892770;76;22128;-62
2021/12/04 01:16:15;;;;;;;16.77;6.45;;;;;;;9.95;84.24;99754.01;1874042;76;22120;-61
2021/12/04 01:18:47;;;;;;;22.95;7.15;;;;;;;9.92;84.34;99747.68;1874027;76;22587;-62
2021/12/04 01:21:19;;;;;;;17.50;7.12;;;;;;;9.91;84.42;99750.83;1874041;76;22546;-62
2021/12/04 01:23:51;;;;;;;20.37;7.42;;;;;;;9.93;84.51;99749.37;1874037;76;22145;-61
2021/12/04 01:26:23;;;;;;;21.80;7.47;;;;;;;9.97;84.46;99758.19;1892929;76;22149;-62
2021/12/04 01:29:15;;;;;;;25.23;8.88;;;;;;;9.96;84.42;99753.84;1892786;76;22561;-62
2021/12/04 01:31:47;;;;;;;22.27;7.22;;;;;;;9.97;84.35;99763.95;1874153;76;22132;-62
2021/12/04 01:34:18;;;;;;;9.30;4.37;;;;;;;9.97;84.42;99805.09;1874038;76;22120;-61
2021/12/04 01:37:09;;;;;;;9.78;4.30;;;;;;;9.87;81.44;99831.72;1874115;76;22129;-62
2021/12/04 01:39:41;;;;;;;6.60;3.90;;;;;;;9.51;78.59;99854.02;1892826;76;22132;-61
2021/12/04 01:42:15;;;;;;;6.53;4.10;;;;;;;9.09;77.77;99852.79;1871321;76;22550;-61
2021/12/04 01:45:07;;;;;;;6.90;4.25;;;;;;;8.68;78.36;99864.25;1873979;76;22141;-64
2021/12/04 01:47:39;;;;;;;6.70;3.35;;;;;;;8.38;78.85;99875.12;1874032;76;22150;-62
2021/12/04 01:50:30;;;;;;;3.70;2.98;;;;;;;8.09;79.08;99881.31;1874019;76;22136;-62
2021/12/04 01:53:02;;;;;;;3.62;3.08;;;;;;;7.82;79.40;99875.93;1892820;76;22120;-62
2021/12/04 01:55:55;;;;;;;2.30;2.08;;;;;;;7.60;80.37;99886.30;1873997;76;22137;-62
2021/12/04 01:58:28;;;;;;;2.60;2.27;;;;;;;7.39;80.07;99895.21;1874028;76;22558;-62
2021/12/04 02:01:00;;;;;;;2.17;1.98;;;;;;;7.18;80.27;99897.95;1874030;76;22133;-64
2021/12/04 02:03:32;;;;;;;3.00;2.08;;;;;;;7.05;80.75;99890.77;1874023;76;22133;-62
2021/12/04 02:06:23;;;;;;;2.65;1.98;;;;;;;6.96;81.30;99900.82;1874118;76;22125;-62
2021/12/04 02:08:54;;;;;;;2.15;1.90;;;;;;;6.86;81.54;99915.81;1873921;76;22145;-62
2021/12/04 02:11:46;;;;;;;2.90;2.05;;;;;;;6.75;82.00;99927.80;1874006;76;22154;-62
2021/12/04 02:14:17;;;;;;;2.33;1.80;;;;;;;6.65;82.37;99933.05;1873909;76;22121;-61
2021/12/04 02:17:08;;;;;;;2.35;1.52;;;;;;;6.57;82.47;99932.37;1873867;76;22125;-61
2021/12/04 02:19:40;;;;;;;1.60;1.10;;;;;;;6.51;82.02;99939.99;1874012;76;22562;-61
2021/12/04 02:22:31;;;;;;;1.02;1.02;;;;;;;6.36;81.57;99944.30;1892761;76;22120;-61
2021/12/04 02:25:07;;;;;;;0.90;0.90;;;;;;;6.23;81.15;99955.53;1874033;76;22541;-61
2021/12/04 02:27:58;;;;;;;2.35;1.62;;;;;;;6.09;81.01;99966.40;1873993;76;22136;-61
2021/12/04 02:30:33;;;;;;;1.25;1.17;;;;;;;5.97;81.21;99966.92;1874031;76;22162;-62
2021/12/04 02:33:44;;;;;;;1.32;1.22;;;;;;;5.83;81.67;99980.38;1880542;75;22642;-62
2021/12/04 02:36:15;;;;;;;1.20;1.00;;;;;;;5.71;82.19;99971.70;1892825;76;22120;-64
2021/12/04 02:38:53;;;;;;;1.00;0.90;;;;;;;5.63;82.27;99969.67;1874048;76;22124;-64
2021/12/04 02:41:44;;;;;;;2.08;1.60;;;;;;;5.57;82.23;99967.55;1874027;76;20477;-62
2021/12/04 02:44:16;;;;;;;1.55;1.42;;;;;;;5.49;82.60;99977.03;1892730;76;22137;-62
2021/12/04 02:46:47;;;;;;;3.27;1.77;;;;;;;5.43;82.68;99987.59;1892711;76;22123;-62
2021/12/04 02:49:21;;;;;;;3.60;2.35;;;;;;;5.38;82.69;100005.08;1874033;76;22132;-64
2021/12/04 02:51:53;;;;;;;8.10;3.45;;;;;;;5.32;82.88;100004.75;1874034;76;22128;-62
2021/12/04 02:54:24;;;;;;;5.00;2.60;;;;;;;5.29;83.12;100011.56;1892832;76;22128;-62
2021/12/04 02:56:56;;;;;;;3.90;1.82;;;;;;;5.27;83.37;100015.64;1892816;76;22137;-62
2021/12/04 02:59:49;;;;;;;3.27;1.70;;;;;;;5.24;83.14;100013.73;1873986;76;22186;-62
2021/12/04 03:02:22;;;;;;;4.78;2.47;;;;;;;5.17;82.89;100020.42;1874041;76;22134;-62
2021/12/04 03:05:12;;;;;;;6.75;2.83;;;;;;;5.06;82.66;100032.64;1873973;76;22157;-61
2021/12/04 03:07:44;;;;;;;5.37;2.20;;;;;;;4.99;82.57;100031.46;1871320;76;22138;-62
2021/12/04 03:10:35;;;;;;;3.77;2.35;;;;;;;4.95;82.49;100044.50;1873987;76;22129;-62
2021/12/04 03:13:09;;;;;;;3.90;2.47;;;;;;;4.94;82.71;100052.49;1874045;76;22121;-61
2021/12/04 03:15:59;;;;;;;7.17;3.08;;;;;;;4.91;82.48;100054.06;1874009;76;22142;-62
2021/12/04 03:18:31;;;;;;;5.33;2.95;;;;;;;4.88;82.48;100065.17;1873922;76;22573;-62
2021/12/04 03:21:05;;;;;;;4.12;2.17;;;;;;;4.89;82.57;100067.32;1874031;76;22129;-63
2021/12/04 03:24:02;;;;;;;2.55;1.90;;;;;;;4.87;82.40;100067.45;1874014;76;22129;-63
2021/12/04 03:26:33;;;;;;;2.40;1.35;;;;;;;4.84;82.42;100070.31;1874024;76;22133;-62
2021/12/04 03:29:27;;;;;;;4.05;1.67;;;;;;;4.78;81.92;100070.79;1873991;76;22140;-64
2021/12/04 03:35:24;;;;;;;1.92;1.10;;;;;;;4.67;81.32;100090.52;1874029;76;22146;-62
2021/12/04 03:40:55;;;;;;;1.80;1.22;;;;;;;4.47;80.44;100099.91;1871308;76;22558;-61
2021/12/04 03:43:44;;;;;;;1.82;1.15;;;;;;;4.36;80.65;100103.80;1873974;76;22128;-62
2021/12/04 03:46:17;;;;;;;1.05;1.00;;;;;;;4.30;80.73;100110.36;1874042;76;22124;-64
2021/12/04 03:51:20;;;;;;;1.80;1.05;;;;;;;4.17;81.34;100113.52;1874029;76;22154;-62
2021/12/04 03:54:11;;;;;;;2.90;1.15;;;;;;;4.13;81.56;100128.31;1892792;76;22124;-61
2021/12/04 03:56:43;;;;;;;1.00;1.00;;;;;;;4.09;81.66;100133.81;1874026;76;22562;-62
2021/12/04 03:59:15;;;;;;;2.00;1.00;;;;;;;4.06;81.25;100135.82;1892823;76;22116;-62
2021/12/04 04:01:47;;;;;;;6.67;3.60;;;;;;;4.00;81.27;100146.31;1874032;76;22121;-62
2021/12/04 04:04:38;;;;;;;8.40;3.58;;;;;;;3.98;81.10;100148.19;1873998;76;22141;-62
2021/12/04 04:07:10;;;;;;;17.55;7.47;;;;;;;3.95;81.40;100142.31;1874023;76;22125;-62
2021/12/04 04:10:00;;;;;;;4.45;2.30;;;;;;;3.97;81.77;100147.83;1892800;76;22553;-61
2021/12/04 04:12:32;;;;;;;2.40;1.65;;;;;;;3.97;81.17;100148.31;1874040;76;22128;-61
2021/12/04 04:15:24;;;;;;;11.73;4.22;;;;;;;3.90;81.23;100147.89;1873993;76;22121;-61
2021/12/04 04:17:56;;;;;;;6.03;3.37;;;;;;;3.83;80.95;100165.06;1874022;76;22577;-62
2021/12/04 04:21:06;;;;;;;3.70;2.90;;;;;;;3.76;80.87;100173.00;1878465;75;22221;-61
2021/12/04 04:23:38;;;;;;;2.75;2.10;;;;;;;3.73;80.72;100166.67;1874027;76;22573;-62
2021/12/04 04:26:10;;;;;;;2.70;2.00;;;;;;;3.68;80.89;100166.99;1892832;76;22115;-62
2021/12/04 04:29:00;;;;;;;2.15;1.57;;;;;;;3.65;81.16;100172.45;1874001;76;22120;-62
2021/12/04 04:31:33;;;;;;;4.15;2.77;;;;;;;3.65;81.18;100175.08;1874022;76;22140;-62
2021/12/04 05:11:43;;;;;;;6.12;3.80;;;;;;;3.68;80.46;100268.61;1858065;76;38184;-64
2021/12/04 05:14:19;;;;;;;4.78;2.80;;;;;;;3.78;80.60;100276.23;1874029;76;22121;-62
2021/12/04 05:22:36;;;;;;;4.53;2.40;;;;;;;3.74;79.84;100291.35;1874026;76;22136;-64
2021/12/04 05:25:08;;;;;;;4.55;2.72;;;;;;;3.71;79.77;100292.86;1874033;76;22145;-64
2021/12/04 05:27:42;;;;;;;3.92;2.83;;;;;;;3.69;79.84;100307.07;1874147;76;22121;-62
2021/12/04 05:30:34;;;;;;;4.65;2.80;;;;;;;3.65;79.77;100306.43;1892822;76;22136;-64
2021/12/04 05:33:05;;;;;;;4.67;2.98;;;;;;;3.59;79.68;100312.95;1874034;76;22154;-64
2021/12/04 05:35:37;;;;;;;3.52;2.65;;;;;;;3.57;79.83;100315.30;1874031;76;22120;-62
2021/12/04 05:38:29;;;;;;;2.50;2.30;;;;;;;3.58;80.14;100313.06;1874133;76;22145;-61
2021/12/04 05:41:00;;;;;;;3.02;2.52;;;;;;;3.61;80.15;100312.00;1873910;76;22165;-62
2021/12/04 05:43:51;;;;;;;4.80;2.45;;;;;;;3.63;80.19;100322.78;1873988;76;22550;-64
2021/12/04 05:46:27;;;;;;;3.30;2.62;;;;;;;3.65;79.96;100316.10;1874030;76;22133;-64
2021/12/04 05:49:20;;;;;;;4.83;3.20;;;;;;;3.66;79.80;100313.84;1873975;76;22137;-63
2021/12/04 05:55:07;;;;;;;3.12;2.17;;;;;;;3.61;79.83;100323.81;1857961;76;27874;-64
2021/12/04 05:57:19;;;;;;;5.58;2.40;;;;;;;3.69;79.51;100324.98;1892811;76;22593;-64
2021/12/04 06:00:19;;;;;;;4.33;2.25;;;;;;;3.70;79.33;100325.34;1871249;76;22160;-65
2021/12/04 06:02:51;;;;;;;5.25;2.67;;;;;;;3.66;79.24;100340.11;1873916;76;22121;-63
2021/12/04 06:05:23;;;;;;;2.65;1.95;;;;;;;3.64;79.43;100343.32;1892819;76;22173;-64
2021/12/04 06:07:55;;;;;;;1.92;1.80;;;;;;;3.64;79.61;100347.27;1874018;76;22623;-64
2021/12/04 06:10:47;;;;;;;3.05;2.25;;;;;;;3.67;79.78;100347.03;1874003;76;22120;-62
2021/12/04 06:13:19;;;;;;;2.30;1.90;;;;;;;3.69;79.62;100351.73;1874046;76;22174;-64
2021/12/04 06:16:10;;;;;;;3.20;1.75;;;;;;;3.72;79.80;100359.42;1892815;76;22120;-62
2021/12/04 06:18:46;;;;;;;2.62;2.22;;;;;;;3.72;79.81;100357.62;1892719;76;22127;-64
2021/12/04 06:24:18;;;;;;;5.28;3.10;;;;;;;3.86;79.85;100368.52;1892826;76;22139;-64
2021/12/04 06:27:09;;;;;;;3.20;2.55;;;;;;;3.91;79.86;100369.05;1874001;76;22158;-64
2021/12/04 06:29:41;;;;;;;3.67;2.30;;;;;;;3.94;79.83;100370.61;1874042;76;22173;-64
2021/12/04 06:32:12;;;;;;;2.47;2.22;;;;;;;3.95;80.06;100375.78;1892810;76;22144;-63
2021/12/04 06:35:09;;;;;;;2.20;2.00;;;;;;;4.00;79.74;100380.70;1873996;76;22178;-64
2021/12/04 06:37:41;;;;;;;2.60;2.22;;;;;;;4.01;79.47;100379.77;1874033;76;22132;-64
2021/12/04 06:40:32;;;;;;;2.67;2.00;;;;;;;4.05;79.54;100387.82;1873968;76;22153;-62
2021/12/04 06:43:04;;;;;;;1.92;1.80;;;;;;;4.07;79.36;100393.33;1874016;76;22579;-64
2021/12/04 06:46:03;;;;;;;2.87;2.30;;;;;;;4.06;79.34;100394.28;1892791;76;22588;-64
2021/12/04 06:48:41;;;;;;;2.37;2.17;;;;;;;4.06;79.25;100403.48;1892824;76;22132;-64
2021/12/04 06:51:33;;;;;;;2.50;2.30;;;;;;;4.03;78.65;100397.11;1874024;76;22137;-64
2021/12/04 06:54:25;;;;;;;4.22;2.50;;;;;;;3.98;78.52;100401.00;1892818;76;22581;-61
2021/12/04 06:56:55;;;;;;;2.65;2.30;;;;;;;3.95;78.67;100406.01;1871316;76;22156;-64
2021/12/04 06:59:47;;;;;;;3.77;2.45;;;;;;;3.96;78.66;100402.43;1871277;76;22150;-64
2021/12/04 07:02:20;;;;;;;2.70;2.50;;;;;;;3.98;78.70;100392.64;1874020;76;22133;-64
2021/12/04 07:05:10;;;;;;;3.58;2.75;;;;;;;3.98;78.56;100393.95;1873980;76;22574;-65
2021/12/04 07:07:42;;;;;;;4.83;3.25;;;;;;;3.96;78.42;100393.23;1892825;76;22150;-62
2021/12/04 07:10:14;;;;;;;3.72;2.65;;;;;;;3.96;78.29;100394.55;1874143;76;22164;-64
2021/12/04 07:12:46;;;;;;;4.55;3.00;;;;;;;3.94;78.22;100395.10;1874014;76;22573;-65
2021/12/04 07:15:17;;;;;;;4.75;3.40;;;;;;;3.95;78.31;100402.06;1874145;76;22158;-64
2021/12/04 07:18:08;;;;;;;4.17;3.27;;;;;;;3.99;78.70;100402.67;1874020;76;22154;-64
2021/12/04 07:20:40;;;;;;;8.65;3.85;;;;;;;4.06;78.91;100402.64;1892828;76;22158;-64
2021/12/04 07:23:31;;;;;;;6.05;3.50;;;;;;;4.13;78.69;100405.20;1892785;76;22142;-64
2021/12/04 07:26:04;;;;;;;6.28;3.80;;;;;;;4.16;78.09;100409.42;1874027;76;22120;-64
2021/12/04 07:28:36;;;;;;;7.05;3.90;;;;;;;4.17;77.41;100408.47;1874040;76;22144;-64
2021/12/04 07:31:08;;;;;;;6.20;3.80;;;;;;;4.16;77.10;100413.37;1871193;76;22597;-64
2021/12/04 07:33:40;;;;;;;8.48;4.33;;;;;;;4.13;76.29;100412.25;1874044;76;22132;-64
2021/12/04 07:36:12;;;;;;;7.37;4.42;;;;;;;4.12;75.93;100417.16;1892822;76;22152;-64
2021/12/04 07:39:03;;;;;;;9.28;4.70;;;;;;;4.12;75.60;100419.30;1890291;76;22165;-64
2021/12/04 07:41:38;;;;;;;12.30;6.30;;;;;;;4.12;74.99;100417.16;1874016;76;22554;-64
2021/12/04 07:44:28;;;;;;;13.00;6.22;;;;;;;4.10;75.00;100426.47;1892888;76;22120;-65
2021/12/04 07:47:00;;;;;;;10.50;5.33;;;;;;;4.10;75.05;100428.62;1873922;76;22177;-64
2021/12/04 07:49:51;;;;;;;8.03;4.85;;;;;;;4.13;75.54;100424.09;1892796;76;22124;-64
2021/12/04 07:52:23;;;;;;;10.80;4.17;;;;;;;4.17;75.50;100422.94;1874020;76;22570;-64
2021/12/04 07:54:55;;;;;;;8.45;4.25;;;;;;;4.16;75.17;100423.41;1874032;76;22124;-64
2021/12/04 07:57:28;;;;;;;8.73;4.50;;;;;;;4.19;75.47;100425.84;1892820;76;22151;-64
2021/12/04 08:00:01;;;;;;;8.23;4.33;;;;;;;4.24;75.55;100426.84;1874018;76;22129;-64
2021/12/04 08:02:52;;;;;;;7.80;4.33;;;;;;;4.30;75.43;100436.45;1873880;76;22149;-64
2021/12/04 08:05:24;;;;;;;8.40;5.05;;;;;;;4.32;74.53;100436.34;1874035;76;22128;-64
2021/12/04 08:07:57;;;;;;;9.53;4.67;;;;;;;4.31;74.05;100443.87;1874027;76;22129;-64
2021/12/04 08:10:48;;;;;;;9.95;5.08;;;;;;;4.27;74.19;100440.59;1873989;76;22121;-64
2021/12/04 08:13:19;;;;;;;8.25;4.70;;;;;;;4.27;74.22;100451.59;1892817;76;22565;-64
2021/12/04 08:16:10;;;;;;;8.80;4.95;;;;;;;4.24;74.45;100451.34;1874011;76;22140;-64
2021/12/04 08:18:42;;;;;;;9.48;4.72;;;;;;;4.22;74.20;100451.91;1892712;76;22131;-64
2021/12/04 08:21:24;;;;;;;11.57;4.75;;;;;;;4.21;73.89;100458.59;1874074;76;22555;-64
2021/12/04 08:24:15;;;;;;;8.88;4.65;;;;;;;4.21;73.97;100443.66;1873993;76;22166;-64
2021/12/04 08:26:47;;;;;;;9.33;4.83;;;;;;;4.23;74.20;100447.48;1874031;76;22125;-64
2021/12/04 08:29:22;;;;;;;12.75;5.17;;;;;;;4.24;73.77;100441.30;1874028;76;22132;-64
2021/12/04 08:32:14;;;;;;;11.70;5.47;;;;;;;4.20;74.00;100439.83;1874001;76;22150;-64
2021/12/04 08:34:52;;;;;;;9.95;4.95;;;;;;;4.12;73.79;100435.08;1871306;76;22577;-64
2021/12/04 08:38:01;;;;;;;10.15;5.30;;;;;;;4.04;73.66;100438.21;1873918;76;22137;-64
2021/12/04 08:40:56;;;;;;;11.15;5.37;;;;;;;4.03;74.07;100435.70;1873843;76;22573;-64
2021/12/04 08:43:47;;;;;;;10.98;5.47;;;;;;;4.08;73.88;100437.55;1873921;76;22137;-64
2021/12/04 08:46:38;;;;;;;11.25;5.72;;;;;;;4.10;73.32;100433.04;1892823;76;22136;-64
2021/12/04 08:49:35;;;;;;;12.45;6.10;;;;;;;4.13;72.39;100429.34;1874150;76;22133;-64
2021/12/04 08:52:32;;;;;;;13.55;6.65;;;;;;;4.10;71.74;100419.42;1873891;76;22158;-64
2021/12/04 08:55:23;;;;;;;12.78;7.15;;;;;;;4.08;71.26;100414.72;1857986;76;28045;-61
2021/12/04 08:58:15;;;;;;;15.63;8.10;;;;;;;4.18;71.13;100421.50;1874017;76;22569;-62
2021/12/04 09:01:12;;;;;;;13.83;7.62;;;;;;;4.23;71.03;100427.77;1892815;76;22128;-64
2021/12/04 09:09:38;;;;;;;14.40;7.08;;;;;;;4.24;71.34;100421.11;1871308;76;22141;-61
2021/12/04 09:12:30;;;;;;;21.12;9.60;;;;;;;4.28;71.14;100413.83;1892764;76;22119;-62
2021/12/04 09:15:06;;;;;;;22.02;10.40;;;;;;;4.28;70.82;100417.77;1892795;76;22557;-62
2021/12/04 09:17:41;;;;;;;17.67;9.08;;;;;;;4.30;70.97;100422.47;1873931;76;22149;-64
2021/12/04 09:20:15;;;;;;;20.37;9.55;;;;;;;4.29;70.74;100426.05;1874146;76;22133;-64
2021/12/04 09:22:47;;;;;;;17.37;7.80;;;;;;;4.27;71.14;100427.45;1874142;76;22562;-64
2021/12/04 09:25:41;;;;;;;19.62;8.48;;;;;;;4.28;71.14;100433.10;1873991;76;22145;-64
2021/12/04 09:28:27;;;;;;;14.30;7.25;;;;;;;4.26;71.09;100437.61;1873691;76;22154;-64
2021/12/04 09:40:15;;;;;;;13.40;6.60;;;;;;;4.26;71.21;100437.61;1892821;76;22128;-64
2021/12/04 10:14:49;;;;;;;12.18;6.08;;;;;;;4.68;71.15;100411.90;1873975;76;22569;-64
2021/12/04 10:22:41;;;;;;;14.45;6.80;;;;;;;4.68;71.09;100400.06;1873993;76;22158;-64
2021/12/04 10:34:10;;;;;;;12.88;6.17;;;;;;;4.72;70.36;100399.37;1892801;76;22124;-64
2021/12/04 10:37:17;;;;;;;12.05;6.03;;;;;;;4.70;70.69;100395.52;1873988;76;22144;-64
2021/12/04 10:39:58;;;;;;;14.23;6.45;;;;;;;4.75;70.43;100399.13;1874026;76;22121;-64
2021/12/04 10:42:58;;;;;;;12.30;6.33;;;;;;;4.80;70.17;100400.52;1873925;76;22150;-64
2021/12/04 10:46:16;;;;;;;11.73;6.35;;;;;;;4.86;69.58;100403.18;1892924;76;22165;-66
2021/12/04 10:49:17;;;;;;;13.35;6.60;;;;;;;4.88;69.16;100398.16;1873980;76;22133;-64
2021/12/04 10:52:13;;;;;;;14.55;6.70;;;;;;;4.89;68.62;100387.14;1892809;76;22131;-64
2021/12/04 10:55:25;;;;;;;11.85;6.35;;;;;;;4.90;68.24;100398.55;1874008;76;22125;-64
2021/12/04 11:01:33;;;;;;;12.60;6.55;;;;;;;4.83;68.59;100408.17;1874027;76;22125;-64
2021/12/04 11:07:16;;;;;;;11.65;6.17;;;;;;;4.83;68.66;100402.07;1874100;76;22128;-65
2021/12/04 11:38:38;;;;;;;12.37;6.30;;;;;;;4.76;67.26;100379.78;1892793;76;22557;-65
2021/12/04 11:46:27;;;;;;;13.25;6.37;;;;;;;4.80;67.33;100382.57;1874140;76;22132;-64
2021/12/04 11:49:24;;;;;;;11.33;6.40;;;;;;;4.81;67.44;100383.77;1892802;76;22157;-64
2021/12/04 11:52:00;;;;;;;13.83;6.37;;;;;;;4.82;67.43;100385.92;1874024;76;22145;-64
2021/12/04 11:54:58;;;;;;;13.38;6.53;;;;;;;4.83;67.21;100388.43;1873994;76;22128;-63
2021/12/04 11:58:09;;;;;;;11.88;6.05;;;;;;;4.81;67.17;100389.03;1874014;76;22558;-63
2021/12/04 12:00:49;;;;;;;10.98;5.95;;;;;;;4.79;67.16;100393.55;1873925;76;22120;-65
2021/12/04 12:03:56;;;;;;;12.93;6.55;;;;;;;4.80;67.02;100398.36;1892797;76;22120;-65
2021/12/04 12:06:42;;;;;;;15.93;7.40;;;;;;;4.77;66.97;100390.67;1892809;76;22149;-64
2021/12/04 12:09:35;;;;;;;15.85;7.78;;;;;;;4.72;66.92;100391.48;1888881;75;22197;-64
2021/12/04 12:12:12;;;;;;;14.98;7.28;;;;;;;4.66;66.96;100387.50;1890312;76;22570;-62
2021/12/04 12:14:51;;;;;;;14.10;7.17;;;;;;;4.60;66.67;100394.01;1892941;76;22153;-64
2021/12/04 12:17:37;;;;;;;17.45;8.70;;;;;;;4.57;66.72;100396.04;1874031;76;22570;-65
2021/12/04 12:20:16;;;;;;;18.57;8.78;;;;;;;4.53;66.62;100386.20;1892935;76;22153;-64
2021/12/04 12:23:08;;;;;;;20.57;8.93;;;;;;;4.49;67.02;100384.73;1874069;76;22182;-64
2021/12/04 12:26:10;;;;;;;15.48;7.62;;;;;;;4.46;67.33;100375.72;1874019;76;22149;-64
2021/12/04 12:32:04;;;;;;;16.17;7.47;;;;;;;4.36;67.20;100377.32;1874039;76;22125;-64
2021/12/04 12:37:25;;;;;;;15.90;7.87;;;;;;;4.33;67.24;100384.13;1874018;76;22156;-64
2021/12/04 12:40:18;;;;;;;16.67;7.80;;;;;;;4.29;67.09;100385.29;1892766;76;22590;-64
2021/12/04 12:42:50;;;;;;;25.62;12.88;;;;;;;4.27;66.86;100380.59;1892822;76;22143;-64
2021/12/04 12:45:29;;;;;;;24.32;11.33;;;;;;;4.23;66.84;100371.23;1892804;76;22566;-65
2021/12/04 12:48:09;;;;;;;18.15;9.25;;;;;;;4.19;67.03;100376.33;1873935;76;22125;-64
2021/12/04 12:51:07;;;;;;;21.97;11.15;;;;;;;4.11;67.15;100362.41;1892908;76;22127;-65
2021/12/04 12:53:45;;;;;;;17.87;8.18;;;;;;;4.06;67.41;100369.30;1892827;76;22139;-64
2021/12/04 12:56:37;;;;;;;17.07;7.85;;;;;;;4.03;67.68;100371.30;1874001;76;22149;-65
2021/12/04 12:59:22;;;;;;;20.30;8.58;;;;;;;4.03;68.11;100366.04;1892817;76;22116;-62
2021/12/04 13:14:24;;;;;;;23.07;10.82;;;;;;;4.22;67.93;100362.50;1874021;76;22133;-65
2021/12/04 13:17:22;;;;;;;23.15;11.90;;;;;;;4.24;68.14;100362.41;1874025;76;22124;-65
2021/12/04 13:20:11;;;;;;;20.48;11.57;;;;;;;4.27;68.26;100364.81;1892813;76;22156;-65
2021/12/04 13:23:12;;;;;;;20.95;9.83;;;;;;;4.27;67.91;100366.13;1873995;76;22136;-65
2021/12/04 13:25:58;;;;;;;18.92;9.03;;;;;;;4.27;67.91;100370.91;1874024;76;22154;-65
2021/12/04 13:28:50;;;;;;;18.67;8.73;;;;;;;4.30;67.77;100379.91;1874118;76;22136;-65
2021/12/04 13:31:22;;;;;;;18.70;8.78;;;;;;;4.32;67.76;100385.89;1873903;76;22137;-64
2021/12/04 13:33:57;;;;;;;21.45;10.23;;;;;;;4.34;67.76;100388.44;1874125;76;22129;-64
2021/12/04 13:36:32;;;;;;;25.72;11.38;;;;;;;4.33;67.80;100407.80;1874016;76;22132;-64
2021/12/04 13:39:23;;;;;;;33.30;14.45;;;;;;;4.34;67.99;100412.11;1873892;76;22136;-64
2021/12/04 13:41:55;;;;;;;34.27;17.60;;;;;;;4.36;68.11;100416.77;1874022;76;22583;-64
2021/12/04 13:44:46;;;;;;;53.83;27.75;;;;;;;4.40;68.10;100419.56;1874012;76;22561;-65
2021/12/04 13:47:18;;;;;;;55.00;29.45;;;;;;;4.41;68.21;100428.30;1874022;76;22128;-64
2021/12/04 13:50:00;;;;;;;40.80;22.75;;;;;;;4.40;68.39;100425.30;1892827;76;22572;-63
2021/12/04 13:52:33;;;;;;;30.48;16.27;;;;;;;4.41;68.37;100423.87;1874040;76;22158;-64
2021/12/04 13:55:24;;;;;;;26.33;14.90;;;;;;;4.41;68.19;100421.23;1873987;76;22573;-65
2021/12/04 13:57:57;;;;;;;21.45;11.85;;;;;;;4.37;68.07;100425.02;1892834;76;22159;-65
2021/12/04 14:00:29;;;;;;;22.77;11.48;;;;;;;4.38;68.06;100425.42;1874025;76;22558;-64
2021/12/04 14:03:01;;;;;;;29.45;15.28;;;;;;;4.41;67.93;100426.50;1874151;76;22153;-63
2021/12/04 14:05:32;;;;;;;28.20;17.50;;;;;;;4.44;67.77;100426.30;1874029;76;22125;-65
2021/12/04 14:08:06;;;;;;;31.10;17.90;;;;;;;4.46;67.75;100424.87;1873927;76;22157;-64
2021/12/04 14:10:44;;;;;;;33.73;19.17;;;;;;;4.48;67.79;100422.52;1873920;76;22133;-65
2021/12/04 14:13:37;;;;;;;26.00;15.13;;;;;;;4.51;67.84;100420.96;1874002;76;22117;-64
2021/12/04 14:16:09;;;;;;;29.87;17.15;;;;;;;4.55;67.69;100422.91;1874028;76;22136;-65
2021/12/04 14:18:42;;;;;;;27.98;16.60;;;;;;;4.56;67.60;100422.83;1892826;76;22141;-62
2021/12/04 14:21:33;;;;;;;25.35;14.18;;;;;;;4.54;67.43;100406.29;1871266;76;22550;-64
2021/12/04 14:24:05;;;;;;;25.40;12.88;;;;;;;4.53;67.26;100407.72;1874037;76;22132;-65
2021/12/04 14:26:57;;;;;;;20.57;10.98;;;;;;;4.46;67.30;100408.61;1892808;76;22139;-66
2021/12/04 14:29:35;;;;;;;18.73;8.90;;;;;;;4.41;67.51;100413.34;1874022;76;22619;-65
2021/12/04 14:32:29;;;;;;;20.15;7.97;;;;;;;4.41;67.58;100408.56;1874008;76;22120;-64
2021/12/04 14:35:15;;;;;;;17.10;7.58;;;;;;;4.35;67.69;100409.36;1874025;76;22142;-65
2021/12/04 14:38:09;;;;;;;19.40;9.10;;;;;;;4.32;67.87;100409.56;1892784;76;22557;-64
2021/12/04 14:40:48;;;;;;;23.87;11.55;;;;;;;4.28;68.09;100404.62;1892832;76;22135;-64
2021/12/04 14:43:24;;;;;;;38.10;18.07;;;;;;;4.25;68.23;100404.85;1874036;76;22128;-64
2021/12/04 14:45:57;;;;;;;48.25;24.02;;;;;;;4.23;68.36;100401.47;1874162;76;22128;-64
2021/12/04 14:48:49;;;;;;;41.77;21.02;;;;;;;4.19;68.53;100403.94;1874026;76;22136;-65
2021/12/04 14:51:40;;;;;;;27.52;12.10;;;;;;;4.15;68.75;100400.70;1871266;76;22137;-64
2021/12/04 14:54:32;;;;;;;23.73;11.22;;;;;;;4.15;68.84;100405.12;1874025;76;22138;-64
2021/12/04 14:57:28;;;;;;;24.32;11.97;;;;;;;4.12;68.88;100408.78;1874015;76;22121;-65
2021/12/04 15:00:24;;;;;;;22.62;11.22;;;;;;;4.06;69.12;100403.48;1874019;76;22121;-64
2021/12/04 15:03:23;;;;;;;32.23;16.80;;;;;;;4.03;69.29;100406.78;1874017;76;22121;-64
2021/12/04 15:06:15;;;;;;;44.77;24.20;;;;;;;4.01;69.40;100408.69;1874130;76;22153;-64
2021/12/04 15:09:14;;;;;;;38.85;18.02;;;;;;;4.02;69.47;100402.00;1873999;76;22136;-65
2021/12/04 15:12:07;;;;;;;34.95;17.12;;;;;;;4.07;69.45;100411.73;1874028;76;22142;-64
2021/12/04 15:15:02;;;;;;;27.87;13.38;;;;;;;4.13;69.54;100413.56;1874014;76;22120;-64
2021/12/04 15:17:34;;;;;;;25.77;12.65;;;;;;;4.14;69.49;100411.30;1874031;76;20200;-64
2021/12/04 15:20:31;;;;;;;22.25;10.85;;;;;;;4.13;69.48;100411.78;1873991;76;22166;-64
2021/12/04 15:23:05;;;;;;;20.43;9.20;;;;;;;4.16;69.48;100416.00;1874026;76;22132;-65
2021/12/04 15:26:03;;;;;;;23.32;10.35;;;;;;;4.19;69.41;100415.77;1873878;76;22579;-65
2021/12/04 15:28:37;;;;;;;24.52;11.45;;;;;;;4.18;69.40;100413.62;1874032;76;22150;-62
2021/12/04 15:31:29;;;;;;;23.95;12.45;;;;;;;4.21;69.32;100420.47;1873992;76;22170;-65
2021/12/04 15:34:01;;;;;;;26.90;13.62;;;;;;;4.24;69.40;100425.53;1892833;76;22136;-64
2021/12/04 15:36:38;;;;;;;30.90;15.23;;;;;;;4.30;69.36;100424.63;1892827;76;22552;-65
2021/12/04 15:39:31;;;;;;;30.68;15.78;;;;;;;4.34;69.16;100423.47;1874102;76;22580;-65
2021/12/04 15:47:44;;;;;;;36.80;19.85;;;;;;;4.31;69.20;100428.92;1874156;76;22137;-65
2021/12/04 15:53:13;;;;;;;78.90;42.33;;;;;;;4.34;69.62;100431.36;1874022;76;23190;-65
2021/12/04 15:55:54;;;;;;;75.20;39.90;;;;;;;4.32;69.49;100430.60;1874024;76;22133;-65